createdAt,value
2022-09-26T00:01:12.320Z,9.99
2022-09-26T00:03:39.067Z,9.87
2022-09-26T00:06:08.094Z,9.81
2022-09-26T00:08:35.962Z,9.77
2022-09-26T00:11:04.176Z,9.77
2022-09-26T00:13:32.019Z,9.83
2022-09-26T00:15:58.659Z,9.89
2022-09-26T00:18:25.971Z,9.93
2022-09-26T00:20:52.740Z,10.02
2022-09-26T00:23:19.569Z,10.02
2022-09-26T00:25:47.096Z,10.05
2022-09-26T00:28:13.821Z,10.14
2022-09-26T00:30:40.961Z,10.19
2022-09-26T00:33:08.115Z,10.19
2022-09-26T00:35:34.481Z,10.06
2022-09-26T00:38:00.941Z,10.07
2022-09-26T00:40:27.998Z,10.01
2022-09-26T00:42:55.009Z,9.99
2022-09-26T00:45:22.945Z,9.95
2022-09-26T00:47:59.299Z,9.92
2022-09-26T00:50:29.303Z,9.93
2022-09-26T00:52:57.029Z,9.93
2022-09-26T00:55:30.111Z,9.89
2022-09-26T00:58:04.387Z,9.83
2022-09-26T01:00:31.061Z,9.81
2022-09-26T01:02:57.667Z,9.74
2022-09-26T01:05:24.184Z,9.67
2022-09-26T01:07:52.714Z,9.58
2022-09-26T01:10:19.365Z,9.65
2022-09-26T01:12:45.828Z,9.60
2022-09-26T01:15:12.641Z,9.70
2022-09-26T01:17:40.380Z,9.67
2022-09-26T01:20:12.755Z,9.62
2022-09-26T01:23:06.413Z,9.68
2022-09-26T01:25:38.792Z,9.63
2022-09-26T01:28:55.531Z,9.67
2022-09-26T01:32:08.273Z,9.63
2022-09-26T01:34:42.510Z,9.67
2022-09-26T01:37:27.603Z,9.67
2022-09-26T01:40:09.157Z,9.66
2022-09-26T01:42:35.438Z,9.74
2022-09-26T01:45:10.025Z,9.80
2022-09-26T01:47:46.304Z,9.88
2022-09-26T01:50:34.873Z,9.87
2022-09-26T01:53:10.073Z,9.91
2022-09-26T01:55:39.889Z,9.89
2022-09-26T01:58:12.909Z,9.90
2022-09-26T02:00:42.365Z,9.88
2022-09-26T02:03:15.880Z,9.88
2022-09-26T02:05:46.848Z,9.90
2022-09-26T02:08:17.524Z,9.97
2022-09-26T02:10:47.838Z,9.96
2022-09-26T02:13:17.801Z,9.98
2022-09-26T02:15:47.453Z,10.01
2022-09-26T02:18:32.928Z,9.97
2022-09-26T02:21:04.898Z,10.00
2022-09-26T02:23:31.290Z,10.07
2022-09-26T02:25:57.949Z,10.08
2022-09-26T02:28:24.325Z,10.13
2022-09-26T02:30:52.303Z,10.13
2022-09-26T02:33:18.710Z,10.13
2022-09-26T02:35:54.132Z,10.12
2022-09-26T02:38:26.411Z,10.12
2022-09-26T02:41:13.179Z,10.14
2022-09-26T02:43:49.182Z,10.23
2022-09-26T02:47:04.700Z,10.32
2022-09-26T02:49:57.648Z,10.31
2022-09-26T02:52:50.925Z,10.29
2022-09-26T02:55:22.606Z,10.31
2022-09-26T02:58:26.597Z,10.36
2022-09-26T03:01:11.749Z,10.32
2022-09-26T03:03:41.509Z,10.41
2022-09-26T03:06:12.610Z,10.54
2022-09-26T03:08:41.324Z,10.48
2022-09-26T03:11:10.711Z,10.42
2022-09-26T03:13:38.805Z,10.49
2022-09-26T03:16:06.344Z,10.42
2022-09-26T03:18:39.956Z,10.37
2022-09-26T03:21:06.843Z,10.37
2022-09-26T03:23:33.243Z,10.39
2022-09-26T03:26:04.335Z,10.49
2022-09-26T03:28:35.317Z,10.43
2022-09-26T03:31:03.959Z,10.45
2022-09-26T03:33:30.377Z,10.47
2022-09-26T03:35:58.849Z,10.41
2022-09-26T03:38:25.377Z,10.46
2022-09-26T03:40:52.711Z,10.44
2022-09-26T03:43:19.180Z,10.47
2022-09-26T03:45:45.584Z,10.46
2022-09-26T03:48:11.991Z,10.42
2022-09-26T03:50:38.352Z,10.41
2022-09-26T03:53:06.599Z,10.43
2022-09-26T03:55:33.196Z,10.46
2022-09-26T03:58:00.589Z,10.44
2022-09-26T04:00:27.486Z,10.46
2022-09-26T04:02:54.054Z,10.46
2022-09-26T04:05:20.636Z,10.50
2022-09-26T04:07:47.277Z,10.54
2022-09-26T04:10:14.218Z,10.47
2022-09-26T04:12:40.833Z,10.52
2022-09-26T04:15:08.748Z,10.54
2022-09-26T04:17:35.373Z,10.58
2022-09-26T04:20:01.998Z,10.61
2022-09-26T04:22:28.364Z,10.61
2022-09-26T04:24:54.737Z,10.53
2022-09-26T04:27:21.145Z,10.61
2022-09-26T04:29:47.517Z,10.62
2022-09-26T04:32:13.940Z,10.56
2022-09-26T04:34:40.612Z,10.53
2022-09-26T04:37:07.191Z,10.47
2022-09-26T04:39:35.860Z,10.50
2022-09-26T04:42:02.242Z,10.47
2022-09-26T04:44:30.251Z,10.49
2022-09-26T04:46:56.640Z,10.45
2022-09-26T04:49:23.592Z,10.43
2022-09-26T04:51:49.975Z,10.35
2022-09-26T04:54:16.621Z,10.43
2022-09-26T04:56:43.136Z,10.43
2022-09-26T04:59:09.649Z,10.34
2022-09-26T05:01:36.082Z,10.37
2022-09-26T05:04:04.023Z,10.38
2022-09-26T05:06:30.416Z,10.34
2022-09-26T05:08:57.635Z,10.34
2022-09-26T05:11:24.405Z,10.30
2022-09-26T05:13:53.645Z,10.32
2022-09-26T05:16:20.695Z,10.35
2022-09-26T05:18:51.790Z,10.34
2022-09-26T05:21:18.272Z,10.30
2022-09-26T05:24:03.222Z,10.25
2022-09-26T05:26:39.766Z,10.33
2022-09-26T05:29:08.898Z,10.40
2022-09-26T05:31:39.326Z,10.44
2022-09-26T05:34:07.749Z,10.40
2022-09-26T05:36:34.757Z,10.37
2022-09-26T05:39:01.312Z,10.37
2022-09-26T05:41:29.468Z,10.42
2022-09-26T05:43:56.347Z,10.46
2022-09-26T05:46:23.301Z,10.45
2022-09-26T05:48:50.421Z,10.42
2022-09-26T05:51:18.316Z,10.44
2022-09-26T05:53:45.684Z,10.52
2022-09-26T05:56:18.273Z,10.40
2022-09-26T05:58:45.359Z,10.38
2022-09-26T06:01:13.907Z,10.45
2022-09-26T06:03:44.958Z,10.49
2022-09-26T06:06:13.470Z,10.58
2022-09-26T06:08:40.648Z,10.65
2022-09-26T06:11:18.261Z,10.65
2022-09-26T06:13:48.448Z,10.66
2022-09-26T06:16:20.454Z,10.67
2022-09-26T06:18:50.031Z,10.75
2022-09-26T06:21:18.471Z,10.88
2022-09-26T06:23:45.365Z,10.86
2022-09-26T06:26:15.711Z,10.94
2022-09-26T06:28:42.278Z,10.88
2022-09-26T06:31:16.020Z,10.99
2022-09-26T06:33:42.547Z,10.99
2022-09-26T06:36:10.305Z,11.03
2022-09-26T06:38:38.016Z,11.17
2022-09-26T06:41:05.235Z,11.14
2022-09-26T06:43:31.673Z,11.15
2022-09-26T06:45:58.043Z,11.27
2022-09-26T06:48:27.226Z,11.26
2022-09-26T06:50:55.537Z,11.29
2022-09-26T06:53:21.916Z,11.34
2022-09-26T06:55:48.657Z,11.30
2022-09-26T06:58:15.035Z,11.26
2022-09-26T07:00:41.591Z,11.33
2022-09-26T07:03:08.317Z,11.43
2022-09-26T07:05:35.019Z,11.42
2022-09-26T07:08:02.361Z,11.47
2022-09-26T07:10:34.601Z,11.48
2022-09-26T07:13:05.154Z,11.45
2022-09-26T07:15:33.883Z,11.45
2022-09-26T07:18:02.621Z,11.40
2022-09-26T07:20:35.777Z,11.32
2022-09-26T07:23:03.066Z,11.33
2022-09-26T07:25:31.563Z,11.42
2022-09-26T07:27:58.636Z,11.42
2022-09-26T07:30:25.741Z,11.45
2022-09-26T07:32:52.258Z,11.46
2022-09-26T07:35:18.681Z,11.49
2022-09-26T07:37:45.130Z,11.42
2022-09-26T07:40:11.991Z,11.46
2022-09-26T07:42:38.809Z,11.50
2022-09-26T07:45:28.911Z,11.54
2022-09-26T07:48:11.360Z,11.56
2022-09-26T07:50:38.019Z,11.46
2022-09-26T07:53:04.514Z,11.55
2022-09-26T07:55:30.933Z,11.57
2022-09-26T07:57:57.873Z,11.54
2022-09-26T08:00:24.576Z,11.61
2022-09-26T08:02:52.641Z,11.62
2022-09-26T08:05:21.977Z,11.69
2022-09-26T08:07:49.132Z,11.73
2022-09-26T08:10:22.026Z,11.66
2022-09-26T08:12:48.834Z,11.81
2022-09-26T08:15:15.597Z,11.79
2022-09-26T08:17:42.783Z,11.84
2022-09-26T08:20:09.464Z,11.75
2022-09-26T08:22:36.282Z,11.77
2022-09-26T08:25:06.560Z,11.79
2022-09-26T08:27:33.504Z,11.84
2022-09-26T08:30:00.715Z,11.87
2022-09-26T08:32:27.440Z,11.85
2022-09-26T08:34:54.151Z,11.69
2022-09-26T08:37:20.984Z,11.59
2022-09-26T08:39:48.125Z,11.59
2022-09-26T08:42:34.281Z,11.66
2022-09-26T08:45:47.354Z,11.50
2022-09-26T08:48:30.205Z,11.51
2022-09-26T08:51:03.222Z,11.40
2022-09-26T08:53:37.127Z,11.39
2022-09-26T08:56:19.088Z,11.29
2022-09-26T08:58:51.824Z,11.24
2022-09-26T09:01:39.346Z,11.37
2022-09-26T09:04:13.340Z,11.37
2022-09-26T09:06:39.707Z,11.44
2022-09-26T09:09:06.435Z,11.34
2022-09-26T09:11:50.865Z,11.24
2022-09-26T09:14:36.220Z,11.22
2022-09-26T09:17:27.553Z,11.15
2022-09-26T09:20:16.087Z,11.16
2022-09-26T09:22:53.997Z,11.16
2022-09-26T09:27:52.457Z,11.07
2022-09-26T09:28:55.175Z,11.07
2022-09-26T09:31:21.746Z,10.97
2022-09-26T09:33:51.674Z,11.09
2022-09-26T09:36:27.454Z,11.03
2022-09-26T09:38:54.689Z,11.05
2022-09-26T09:41:24.879Z,10.92
2022-09-26T09:44:03.629Z,10.91
2022-09-26T09:46:36.631Z,10.87
2022-09-26T09:49:09.260Z,11.00
2022-09-26T09:51:51.384Z,10.96
2022-09-26T09:54:41.985Z,11.03
2022-09-26T09:57:40.173Z,10.90
2022-09-26T10:00:16.978Z,10.83
2022-09-26T10:02:50.701Z,10.93
2022-09-26T10:05:17.272Z,10.92
2022-09-26T10:07:45.045Z,10.83
2022-09-26T10:10:14.839Z,10.83
2022-09-26T10:12:42.099Z,10.89
2022-09-26T10:15:19.623Z,10.97
2022-09-26T10:18:24.745Z,10.94
2022-09-26T10:21:06.651Z,11.07
2022-09-26T10:23:34.928Z,11.01
2022-09-26T10:26:04.514Z,11.10
2022-09-26T10:28:33.381Z,11.25
2022-09-26T10:31:03.712Z,11.23
2022-09-26T10:33:34.676Z,11.35
2022-09-26T10:36:09.377Z,11.43
2022-09-26T10:39:08.929Z,11.51
2022-09-26T10:41:40.001Z,11.45
2022-09-26T10:44:21.090Z,11.53
2022-09-26T10:46:49.506Z,11.60
2022-09-26T10:49:17.006Z,11.66
2022-09-26T10:51:46.463Z,11.65
2022-09-26T10:54:17.047Z,11.77
2022-09-26T10:56:47.067Z,11.73
2022-09-26T10:59:18.216Z,11.78
2022-09-26T11:01:48.258Z,11.76
2022-09-26T11:04:36.324Z,11.83
2022-09-26T11:07:04.690Z,11.79
2022-09-26T11:09:32.176Z,11.89
2022-09-26T11:11:58.705Z,11.89
2022-09-26T11:14:29.041Z,11.87
2022-09-26T11:16:56.338Z,11.87
2022-09-26T11:19:44.456Z,11.85
2022-09-26T11:22:27.257Z,11.81
2022-09-26T11:25:18.771Z,11.89
2022-09-26T11:27:52.344Z,11.93
2022-09-26T11:30:21.012Z,11.94
2022-09-26T11:32:49.065Z,12.04
2022-09-26T11:35:43.867Z,12.02
2022-09-26T11:38:15.449Z,12.16
2022-09-26T11:41:00.073Z,12.18
2022-09-26T11:43:44.900Z,12.28
2022-09-26T11:46:39.300Z,12.37
2022-09-26T11:49:16.026Z,12.47
2022-09-26T11:52:12.348Z,12.45
2022-09-26T11:55:09.779Z,12.47
2022-09-26T11:58:14.665Z,12.63
2022-09-26T12:01:00.433Z,12.61
2022-09-26T12:03:55.904Z,12.83
2022-09-26T12:06:29.068Z,13.03
2022-09-26T12:09:27.359Z,13.12
2022-09-26T12:12:15.163Z,13.13
2022-09-26T12:15:02.269Z,13.23
2022-09-26T12:17:50.162Z,13.06
2022-09-26T12:20:38.604Z,12.88
2022-09-26T12:23:24.971Z,12.81
2022-09-26T12:25:55.935Z,12.78
2022-09-26T12:28:44.205Z,12.79
2022-09-26T12:31:29.777Z,12.82
2022-09-26T12:33:59.817Z,12.83
2022-09-26T12:36:47.955Z,12.72
2022-09-26T12:39:26.617Z,12.76
2022-09-26T12:42:02.389Z,12.75
2022-09-26T12:44:38.784Z,12.76
2022-09-26T12:47:37.042Z,12.76
2022-09-26T12:50:14.536Z,12.77
2022-09-26T12:52:59.187Z,12.70
2022-09-26T12:55:31.695Z,12.79
2022-09-26T12:58:01.331Z,12.83
2022-09-26T13:00:40.704Z,12.81
2022-09-26T13:03:10.108Z,12.63
2022-09-26T13:06:13.274Z,12.59
2022-09-26T13:08:57.287Z,12.50
2022-09-26T13:11:35.680Z,12.46
2022-09-26T13:14:08.924Z,12.45
2022-09-26T13:16:46.652Z,12.40
2022-09-26T13:19:29.878Z,12.26
2022-09-26T13:22:00.232Z,12.20
2022-09-26T13:24:48.543Z,12.15
2022-09-26T13:27:21.041Z,12.12
2022-09-26T13:29:56.391Z,12.17
2022-09-26T13:32:26.719Z,12.19
2022-09-26T13:35:04.045Z,12.08
2022-09-26T13:37:38.090Z,12.07
2022-09-26T13:40:34.281Z,12.13
2022-09-26T13:43:29.027Z,12.06
2022-09-26T13:46:16.041Z,12.03
2022-09-26T13:48:51.764Z,12.08
2022-09-26T13:51:29.411Z,11.98
2022-09-26T13:54:15.545Z,11.94
2022-09-26T13:56:45.580Z,11.95
2022-09-26T13:59:11.894Z,12.09
2022-09-26T14:01:41.944Z,12.15
2022-09-26T14:04:33.414Z,12.19
2022-09-26T14:07:28.801Z,12.14
2022-09-26T14:10:19.458Z,12.00
2022-09-26T14:13:08.363Z,12.04
2022-09-26T14:15:56.795Z,12.08
2022-09-26T14:18:45.987Z,12.17
2022-09-26T14:21:32.800Z,12.16
2022-09-26T14:24:21.088Z,12.11
2022-09-26T14:26:57.379Z,12.02
2022-09-26T14:29:24.891Z,12.01
2022-09-26T14:32:04.361Z,12.10
2022-09-26T14:34:54.116Z,12.07
2022-09-26T14:37:26.163Z,12.14
2022-09-26T14:40:04.086Z,12.12
2022-09-26T14:42:38.256Z,12.04
2022-09-26T14:45:16.767Z,12.08
2022-09-26T14:47:48.054Z,12.15
2022-09-26T14:50:19.485Z,12.12
2022-09-26T14:53:11.386Z,12.24
2022-09-26T14:55:53.163Z,12.16
2022-09-26T14:58:38.084Z,12.11
2022-09-26T15:01:06.276Z,12.10
2022-09-26T15:03:34.464Z,12.08
2022-09-26T15:06:03.494Z,12.05
2022-09-26T15:08:32.436Z,12.04
2022-09-26T15:11:00.874Z,12.00
2022-09-26T15:13:34.585Z,12.05
2022-09-26T15:16:07.825Z,11.90
2022-09-26T15:18:38.219Z,11.89
2022-09-26T15:21:19.709Z,11.91
2022-09-26T15:23:51.343Z,11.79
2022-09-26T15:26:21.160Z,11.73
2022-09-26T15:28:51.998Z,11.77
2022-09-26T15:31:20.733Z,11.77
2022-09-26T15:34:00.753Z,11.68
2022-09-26T15:36:37.571Z,11.64
2022-09-26T15:39:32.759Z,11.55
2022-09-26T15:42:19.238Z,11.51
2022-09-26T15:44:48.574Z,11.43
2022-09-26T15:47:29.879Z,11.51
2022-09-26T15:50:02.542Z,11.42
2022-09-26T15:52:29.656Z,11.50
2022-09-26T15:54:56.413Z,11.44
2022-09-26T16:00:04.432Z,11.39
2022-09-26T16:02:32.485Z,11.32
2022-09-26T16:04:59.634Z,11.33
2022-09-26T16:07:28.298Z,11.27
2022-09-26T16:09:56.223Z,11.29
2022-09-26T16:12:24.448Z,11.31
2022-09-26T16:15:04.076Z,11.33
2022-09-26T16:17:34.748Z,11.35
2022-09-26T16:20:13.349Z,11.44
2022-09-26T16:22:51.052Z,11.45
2022-09-26T16:25:17.470Z,11.43
2022-09-26T16:27:49.272Z,11.47
2022-09-26T16:30:27.700Z,11.39
2022-09-26T16:33:21.378Z,11.48
2022-09-26T16:35:48.198Z,11.48
2022-09-26T16:38:20.729Z,11.44
2022-09-26T16:40:52.109Z,11.45
2022-09-26T16:43:26.923Z,11.44
2022-09-26T16:46:17.484Z,11.45
2022-09-26T16:48:49.950Z,11.38
2022-09-26T16:51:21.119Z,11.37
2022-09-26T16:54:08.008Z,11.32
2022-09-26T16:56:45.242Z,11.29
2022-09-26T16:59:18.781Z,11.28
2022-09-26T17:01:56.182Z,11.31
2022-09-26T17:04:31.222Z,11.31
2022-09-26T17:07:07.426Z,11.23
2022-09-26T17:09:35.857Z,11.21
2022-09-26T17:12:04.070Z,11.22
2022-09-26T17:14:38.006Z,11.19
2022-09-26T17:17:08.111Z,11.22
2022-09-26T17:19:38.455Z,11.18
2022-09-26T17:22:16.174Z,11.22
2022-09-26T17:24:42.915Z,11.21
2022-09-26T17:27:14.639Z,11.13
2022-09-26T17:29:43.880Z,11.04
2022-09-26T17:32:31.241Z,10.87
2022-09-26T17:35:01.919Z,10.86
2022-09-26T17:37:33.472Z,10.82
2022-09-26T17:40:00.037Z,10.88
2022-09-26T17:42:26.401Z,10.79
2022-09-26T17:44:52.934Z,10.82
2022-09-26T17:47:19.823Z,10.83
2022-09-26T17:49:56.207Z,10.70
2022-09-26T17:52:27.194Z,10.76
2022-09-26T17:55:02.317Z,10.81
2022-09-26T17:57:33.542Z,10.83
2022-09-26T18:00:05.547Z,10.72
2022-09-26T18:02:34.814Z,10.68
2022-09-26T18:05:04.142Z,10.71
2022-09-26T18:07:35.429Z,10.78
2022-09-26T18:10:07.120Z,10.75
2022-09-26T18:12:34.604Z,10.78
2022-09-26T18:15:03.275Z,10.80
2022-09-26T18:17:29.936Z,10.80
2022-09-26T18:19:56.474Z,10.76
2022-09-26T18:22:27.954Z,10.81
2022-09-26T18:24:59.800Z,10.68
2022-09-26T18:27:26.180Z,10.77
2022-09-26T18:29:52.539Z,10.64
2022-09-26T18:32:31.516Z,10.65
2022-09-26T18:34:58.834Z,10.71
2022-09-26T18:37:25.231Z,10.67
2022-09-26T18:39:55.127Z,10.59
2022-09-26T18:42:24.296Z,10.66
2022-09-26T18:44:57.675Z,10.59
2022-09-26T18:47:28.140Z,10.49
2022-09-26T18:49:54.760Z,10.56
2022-09-26T18:52:23.384Z,10.45
2022-09-26T18:55:09.738Z,10.46
2022-09-26T18:57:58.993Z,10.52
2022-09-26T19:00:27.845Z,10.49
2022-09-26T19:02:54.695Z,10.54
2022-09-26T19:05:21.186Z,10.56
2022-09-26T19:07:47.687Z,10.48
2022-09-26T19:10:20.803Z,10.43
2022-09-26T19:12:48.554Z,10.45
2022-09-26T19:15:16.054Z,10.40
2022-09-26T19:17:43.370Z,10.48
2022-09-26T19:20:10.011Z,10.49
2022-09-26T19:22:36.511Z,10.44
2022-09-26T19:25:02.963Z,10.36
2022-09-26T19:27:39.666Z,10.43
2022-09-26T19:30:21.272Z,10.34
2022-09-26T19:32:50.463Z,10.32
2022-09-26T19:35:31.418Z,10.27
2022-09-26T19:37:58.694Z,10.24
2022-09-26T19:40:25.993Z,10.28
2022-09-26T19:42:52.490Z,10.26
2022-09-26T19:45:19.642Z,10.25
2022-09-26T19:47:48.485Z,10.30
2022-09-26T19:50:25.283Z,10.29
2022-09-26T19:52:53.039Z,10.15
2022-09-26T19:55:24.184Z,10.19
2022-09-26T19:57:51.405Z,10.20
2022-09-26T20:00:19.564Z,10.22
2022-09-26T20:02:46.736Z,10.19
2022-09-26T20:05:20.928Z,10.16
2022-09-26T20:08:27.961Z,10.21
2022-09-26T20:10:57.890Z,10.22
2022-09-26T20:13:24.374Z,10.25
2022-09-26T20:15:51.000Z,10.24
2022-09-26T20:18:22.263Z,10.23
2022-09-26T20:20:52.464Z,10.25
2022-09-26T20:23:25.380Z,10.23
2022-09-26T20:25:52.976Z,10.23
2022-09-26T20:28:19.447Z,10.19
2022-09-26T20:30:51.935Z,10.21
2022-09-26T20:33:21.730Z,10.27
2022-09-26T20:35:52.430Z,10.34
2022-09-26T20:38:38.280Z,10.32
2022-09-26T20:41:13.218Z,10.34
2022-09-26T20:43:40.258Z,10.37
2022-09-26T20:46:09.111Z,10.41
2022-09-26T20:48:36.258Z,10.47
2022-09-26T20:51:04.557Z,10.51
2022-09-26T20:53:31.056Z,10.48
2022-09-26T20:55:57.529Z,10.42
2022-09-26T20:58:24.253Z,10.44
2022-09-26T21:00:52.748Z,10.49
2022-09-26T21:03:21.817Z,10.43
2022-09-26T21:05:48.297Z,10.45
2022-09-26T21:08:24.216Z,10.47
2022-09-26T21:10:50.608Z,10.43
2022-09-26T21:13:24.189Z,10.49
2022-09-26T21:15:51.530Z,10.49
2022-09-26T21:18:23.520Z,10.38
2022-09-26T21:20:50.264Z,10.42
2022-09-26T21:23:18.709Z,10.41
2022-09-26T21:25:45.113Z,10.48
2022-09-26T21:28:21.020Z,10.41
2022-09-26T21:30:48.328Z,10.41
2022-09-26T21:33:14.930Z,10.43
2022-09-26T21:35:41.408Z,10.38
2022-09-26T21:38:07.855Z,10.41
2022-09-26T21:40:37.876Z,10.41
2022-09-26T21:43:10.133Z,10.49
2022-09-26T21:45:36.605Z,10.48
2022-09-26T21:48:03.002Z,10.53
2022-09-26T21:50:29.641Z,10.52
2022-09-26T21:53:04.345Z,10.45
2022-09-26T21:55:33.575Z,10.41
2022-09-26T21:58:02.603Z,10.48
2022-09-26T22:00:28.988Z,10.47
2022-09-26T22:02:58.528Z,10.49
2022-09-26T22:05:25.359Z,10.46
2022-09-26T22:07:51.840Z,10.50
2022-09-26T22:10:18.564Z,10.46
2022-09-26T22:12:44.945Z,10.46
2022-09-26T22:15:11.477Z,10.51
2022-09-26T22:17:38.032Z,10.44
2022-09-26T22:20:04.903Z,10.42
2022-09-26T22:22:31.499Z,10.46
2022-09-26T22:25:02.447Z,10.52
2022-09-26T22:27:28.971Z,10.56
2022-09-26T22:29:55.370Z,10.51
2022-09-26T22:32:21.920Z,10.43
2022-09-26T22:34:49.110Z,10.45
2022-09-26T22:37:15.597Z,10.47
2022-09-26T22:39:42.025Z,10.16
2022-09-26T22:42:08.634Z,10.37
2022-09-26T22:44:35.849Z,10.37
2022-09-26T22:47:02.320Z,10.30
2022-09-26T22:49:28.828Z,10.26
2022-09-26T22:51:55.203Z,10.30
2022-09-26T22:54:21.618Z,10.32
2022-09-26T22:56:47.989Z,10.34
2022-09-26T22:59:39.182Z,10.45
2022-09-26T23:02:05.653Z,10.38
2022-09-26T23:04:47.194Z,10.39
2022-09-26T23:07:15.445Z,10.42
2022-09-26T23:09:42.323Z,10.37
2022-09-26T23:12:09.012Z,10.30
2022-09-26T23:14:35.499Z,10.21
2022-09-26T23:17:02.223Z,10.33
2022-09-26T23:19:28.802Z,10.47
2022-09-26T23:21:55.211Z,10.31
2022-09-26T23:24:21.676Z,10.22
2022-09-26T23:26:48.079Z,10.31
2022-09-26T23:29:14.587Z,10.13
2022-09-26T23:31:40.980Z,10.14
2022-09-26T23:34:08.090Z,10.04
2022-09-26T23:36:34.565Z,10.01
2022-09-26T23:39:00.988Z,10.20
2022-09-26T23:41:27.398Z,10.24
2022-09-26T23:43:53.817Z,10.12
2022-09-26T23:46:20.328Z,10.06
2022-09-26T23:48:46.736Z,10.17
2022-09-26T23:51:13.217Z,10.06
2022-09-26T23:53:39.647Z,10.15
2022-09-26T23:56:08.464Z,10.19
2022-09-26T23:58:35.515Z,10.07
